createdAt,value
2018-11-05T00:00:22.226Z,47.30
2018-11-05T00:02:53.387Z,46.10
2018-11-05T00:05:23.817Z,46.90
2018-11-05T00:07:53.929Z,46.23
2018-11-05T00:10:24.446Z,48.17
2018-11-05T00:12:54.873Z,47.80
2018-11-05T00:15:25.217Z,45.67
2018-11-05T00:17:56.040Z,48.50
2018-11-05T00:20:25.848Z,49.27
2018-11-05T00:22:56.386Z,49.37
2018-11-05T00:25:26.800Z,49.83
2018-11-05T00:27:57.018Z,50.73
2018-11-05T00:30:27.859Z,50.53
2018-11-05T00:32:58.486Z,49.47
2018-11-05T00:35:30.446Z,51.83
2018-11-05T00:38:01.303Z,53.57
2018-11-05T00:40:31.926Z,52.23
2018-11-05T00:43:02.559Z,55.30
2018-11-05T00:45:32.871Z,53.50
2018-11-05T00:48:03.418Z,55.20
2018-11-05T00:50:33.821Z,53.80
2018-11-05T00:53:04.453Z,55.80
2018-11-05T00:55:34.900Z,55.50
2018-11-05T00:58:05.721Z,53.87
2018-11-05T01:00:36.100Z,55.40
2018-11-05T01:03:06.465Z,54.60
2018-11-05T01:05:36.378Z,54.53
2018-11-05T01:08:06.316Z,53.87
2018-11-05T01:10:36.428Z,52.30
2018-11-05T01:13:06.731Z,51.83
2018-11-05T01:15:36.761Z,51.20
2018-11-05T01:18:06.464Z,51.97
2018-11-05T01:20:36.376Z,53.50
2018-11-05T01:23:06.205Z,51.97
2018-11-05T01:25:36.101Z,48.40
2018-11-05T01:28:06.121Z,51.13
2018-11-05T01:30:36.565Z,53.30
2018-11-05T01:33:06.871Z,53.27
2018-11-05T01:35:37.006Z,50.87
2018-11-05T01:38:06.924Z,52.67
2018-11-05T01:40:37.118Z,52.63
2018-11-05T01:43:07.262Z,49.73
2018-11-05T01:45:37.252Z,51.30
2018-11-05T01:48:07.687Z,54.30
2018-11-05T01:50:37.801Z,54.17
2018-11-05T01:53:08.231Z,49.57
2018-11-05T01:55:38.450Z,50.73
2018-11-05T01:58:09.383Z,51.53
2018-11-05T02:00:39.930Z,49.50
2018-11-05T02:03:09.848Z,50.57
2018-11-05T02:05:39.749Z,51.37
2018-11-05T02:08:09.566Z,49.53
2018-11-05T02:10:39.373Z,47.40
2018-11-05T02:13:09.249Z,54.37
2018-11-05T02:15:39.085Z,49.40
2018-11-05T02:18:09.416Z,47.37
2018-11-05T02:20:39.842Z,52.33
2018-11-05T02:23:09.861Z,49.40
2018-11-05T02:25:39.996Z,46.47
2018-11-05T02:28:10.399Z,45.63
2018-11-05T02:30:40.322Z,47.83
2018-11-05T02:33:10.945Z,48.03
2018-11-05T02:35:40.965Z,45.97
2018-11-05T02:38:10.880Z,45.57
2018-11-05T02:40:41.407Z,45.93
2018-11-05T02:43:11.526Z,45.07
2018-11-05T02:45:41.556Z,42.30
2018-11-05T02:48:11.661Z,45.63
2018-11-05T02:50:41.787Z,47.17
2018-11-05T02:53:12.005Z,46.40
2018-11-05T02:55:42.324Z,45.50
2018-11-05T02:58:12.454Z,47.30
2018-11-05T03:00:42.871Z,48.50
2018-11-05T03:03:13.210Z,48.03
2018-11-05T03:05:43.108Z,47.33
2018-11-05T03:08:13.233Z,51.27
2018-11-05T03:10:43.025Z,48.80
2018-11-05T03:13:12.976Z,52.17
2018-11-05T03:15:43.071Z,49.83
2018-11-05T03:18:13.191Z,49.20
2018-11-05T03:20:43.512Z,49.43
2018-11-05T03:23:13.836Z,49.73
2018-11-05T03:25:43.980Z,51.43
2018-11-05T03:28:14.178Z,48.93
2018-11-05T03:30:44.398Z,45.27
2018-11-05T03:33:14.827Z,48.17
2018-11-05T03:35:45.522Z,44.93
2018-11-05T03:38:15.377Z,47.00
2018-11-05T03:40:45.069Z,49.60
2018-11-05T03:43:15.006Z,47.07
2018-11-05T03:45:44.811Z,48.23
2018-11-05T03:48:14.620Z,50.03
2018-11-05T03:50:44.117Z,50.67
2018-11-05T03:53:13.860Z,49.77
2018-11-05T03:55:43.941Z,44.53
2018-11-05T03:58:13.867Z,48.90
2018-11-05T04:00:43.984Z,46.83
2018-11-05T04:03:14.059Z,48.00
2018-11-05T04:05:44.220Z,47.60
2018-11-05T04:08:14.552Z,46.27
2018-11-05T04:10:44.459Z,47.33
2018-11-05T04:13:14.786Z,45.17
2018-11-05T04:15:45.437Z,45.13
2018-11-05T04:18:15.839Z,49.73
2018-11-05T04:20:45.857Z,44.20
2018-11-05T04:23:16.278Z,49.40
2018-11-05T04:25:46.820Z,43.63
2018-11-05T04:28:16.932Z,43.27
2018-11-05T04:30:46.743Z,45.80
2018-11-05T04:33:16.860Z,46.97
2018-11-05T04:35:46.771Z,45.37
2018-11-05T04:38:16.490Z,46.70
2018-11-05T04:40:46.081Z,46.63
2018-11-05T04:43:15.802Z,45.33
2018-11-05T04:45:45.710Z,43.87
2018-11-05T04:48:15.112Z,45.17
2018-11-05T04:50:45.133Z,45.37
2018-11-05T04:53:14.978Z,46.07
2018-11-05T04:55:45.059Z,45.27
2018-11-05T04:58:14.870Z,43.90
2018-11-05T05:00:44.682Z,47.43
2018-11-05T05:03:14.563Z,45.33
2018-11-05T05:05:44.309Z,47.80
2018-11-05T05:08:14.225Z,44.73
2018-11-05T05:10:44.341Z,46.17
2018-11-05T05:13:14.252Z,48.77
2018-11-05T05:15:44.295Z,49.20
2018-11-05T05:18:14.094Z,48.70
2018-11-05T05:20:43.892Z,45.90
2018-11-05T05:23:13.499Z,46.10
2018-11-05T05:25:43.416Z,51.67
2018-11-05T05:28:13.840Z,47.67
2018-11-05T05:30:43.966Z,47.20
2018-11-05T05:33:14.360Z,48.20
2018-11-05T05:35:43.992Z,50.67
2018-11-05T05:38:13.802Z,49.67
2018-11-05T05:40:43.761Z,48.17
2018-11-05T05:43:14.155Z,47.33
2018-11-05T05:45:44.059Z,47.73
2018-11-05T05:48:13.776Z,48.40
2018-11-05T05:50:43.795Z,46.40
2018-11-05T05:53:13.389Z,48.90
2018-11-05T05:55:43.816Z,49.67
2018-11-05T05:58:14.449Z,51.13
2018-11-05T06:00:44.469Z,49.63
2018-11-05T06:03:14.785Z,49.53
2018-11-05T06:05:45.830Z,50.17
2018-11-05T06:08:15.843Z,47.67
2018-11-05T06:10:45.757Z,45.67
2018-11-05T06:13:15.467Z,48.97
2018-11-05T06:15:45.445Z,50.10
2018-11-05T06:18:15.320Z,50.00
2018-11-05T06:20:44.909Z,50.60
2018-11-05T06:23:15.141Z,49.93
2018-11-05T06:25:45.357Z,53.73
2018-11-05T06:28:15.935Z,46.90
2018-11-05T06:30:45.795Z,46.83
2018-11-05T06:33:16.979Z,49.73
2018-11-05T06:35:46.652Z,48.23
2018-11-05T06:38:17.170Z,49.47
2018-11-05T06:40:47.298Z,49.90
2018-11-05T06:43:17.203Z,48.20
2018-11-05T06:45:47.028Z,50.83
2018-11-05T06:48:17.258Z,49.17
2018-11-05T06:50:47.251Z,50.50
2018-11-05T06:53:17.891Z,49.97
2018-11-05T06:55:47.896Z,49.93
2018-11-05T06:58:17.619Z,49.63
2018-11-05T07:00:47.443Z,49.37
2018-11-05T07:03:17.557Z,48.73
2018-11-05T07:05:47.539Z,49.47
2018-11-05T07:08:17.176Z,47.93
2018-11-05T07:10:46.874Z,45.63
2018-11-05T07:13:16.885Z,45.83
2018-11-05T07:15:46.616Z,46.93
2018-11-05T07:18:17.099Z,46.00
2018-11-05T07:20:47.163Z,45.00
2018-11-05T07:23:16.953Z,45.77
2018-11-05T07:25:46.461Z,45.73
2018-11-05T07:28:16.290Z,46.53
2018-11-05T07:30:46.192Z,44.17
2018-11-05T07:33:16.035Z,43.57
2018-11-05T07:35:45.806Z,44.70
2018-11-05T07:38:15.411Z,42.03
2018-11-05T07:40:45.009Z,43.93
2018-11-05T07:43:15.007Z,44.03
2018-11-05T07:45:45.028Z,42.57
2018-11-05T07:48:14.888Z,41.97
2018-11-05T07:50:44.720Z,42.57
2018-11-05T07:53:14.927Z,42.43
2018-11-05T07:55:44.706Z,40.50
2018-11-05T07:58:14.626Z,42.10
2018-11-05T08:00:48.547Z,39.93
2018-11-05T08:03:18.137Z,40.40
2018-11-05T08:05:47.947Z,41.70
2018-11-05T08:08:17.772Z,41.37
2018-11-05T08:10:47.476Z,41.30
2018-11-05T08:13:17.381Z,42.40
2018-11-05T08:15:48.429Z,41.63
2018-11-05T08:18:18.976Z,39.17
2018-11-05T08:20:48.987Z,42.50
2018-11-05T08:23:18.476Z,39.70
2018-11-05T08:25:48.487Z,38.57
2018-11-05T08:28:18.408Z,38.37
2018-11-05T08:30:47.909Z,38.10
2018-11-05T08:33:18.249Z,39.10
2018-11-05T08:35:48.167Z,36.83
2018-11-05T08:38:17.857Z,41.47
2018-11-05T08:40:47.666Z,40.00
2018-11-05T08:43:17.408Z,43.00
2018-11-05T08:45:47.189Z,37.20
2018-11-05T08:48:16.901Z,35.30
2018-11-05T08:50:46.665Z,32.60
2018-11-05T08:53:16.939Z,33.47
2018-11-05T08:55:46.847Z,33.40
2018-11-05T08:58:16.867Z,30.13
2018-11-05T09:00:50.885Z,31.37
2018-11-05T09:03:20.580Z,29.77
2018-11-05T09:05:50.389Z,29.63
2018-11-05T09:08:19.894Z,28.53
2018-11-05T09:10:49.687Z,29.40
2018-11-05T09:13:19.211Z,27.43
2018-11-05T09:15:49.247Z,28.23
2018-11-05T09:18:19.247Z,27.10
2018-11-05T09:20:49.353Z,26.00
2018-11-05T09:23:19.182Z,33.97
2018-11-05T09:25:48.991Z,28.73
2018-11-05T09:28:18.604Z,24.37
2018-11-05T09:30:48.087Z,26.00
2018-11-05T09:33:17.812Z,23.07
2018-11-05T09:35:47.729Z,22.23
2018-11-05T09:38:17.429Z,22.43
2018-11-05T09:40:47.347Z,21.50
2018-11-05T09:43:17.048Z,21.83
2018-11-05T09:45:46.768Z,22.17
2018-11-05T09:48:16.681Z,20.53
2018-11-05T09:50:46.416Z,21.17
2018-11-05T09:53:16.006Z,21.20
2018-11-05T09:55:45.709Z,20.77
2018-11-05T09:58:15.427Z,21.67
2018-11-05T10:00:45.126Z,21.03
2018-11-05T10:03:19.034Z,19.73
2018-11-05T10:05:48.777Z,20.80
2018-11-05T10:08:19.067Z,19.70
2018-11-05T10:10:48.795Z,20.97
2018-11-05T10:13:18.786Z,19.23
2018-11-05T10:15:48.907Z,20.37
2018-11-05T10:18:19.853Z,19.07
2018-11-05T10:20:49.867Z,19.23
2018-11-05T10:23:19.678Z,18.40
2018-11-05T10:25:49.487Z,18.60
2018-11-05T10:28:18.989Z,19.10
2018-11-05T10:30:48.810Z,19.20
2018-11-05T10:33:18.842Z,17.97
2018-11-05T10:35:52.623Z,18.67
2018-11-05T10:38:22.361Z,17.83
2018-11-05T10:40:52.350Z,19.70
2018-11-05T10:43:22.261Z,20.10
2018-11-05T10:45:52.290Z,19.20
2018-11-05T10:48:22.004Z,18.47
2018-11-05T10:50:51.809Z,19.27
2018-11-05T10:53:22.227Z,19.07
2018-11-05T10:55:52.146Z,20.87
2018-11-05T10:58:22.649Z,21.23
2018-11-05T11:00:57.407Z,20.00
2018-11-05T11:03:32.968Z,19.03
2018-11-05T11:06:03.478Z,21.60
2018-11-05T11:08:33.384Z,20.17
2018-11-05T11:11:03.708Z,18.87
2018-11-05T11:13:34.018Z,19.13
2018-11-05T11:16:03.848Z,18.83
2018-11-05T11:18:33.347Z,18.17
2018-11-05T11:21:03.057Z,18.33
2018-11-05T11:23:33.200Z,18.93
2018-11-05T11:26:03.293Z,19.83
2018-11-05T11:28:33.144Z,18.20
2018-11-05T11:31:02.817Z,18.10
2018-11-05T11:33:32.837Z,19.63
2018-11-05T11:36:03.047Z,18.67
2018-11-05T11:38:33.277Z,20.20
2018-11-05T11:41:03.399Z,17.30
2018-11-05T11:43:33.105Z,19.33
2018-11-05T11:46:02.977Z,17.80
2018-11-05T11:48:33.133Z,21.13
2018-11-05T11:51:02.856Z,18.67
2018-11-05T11:53:33.016Z,19.10
2018-11-05T11:56:02.364Z,18.27
2018-11-05T11:58:32.795Z,17.13
2018-11-05T12:01:03.789Z,17.43
2018-11-05T12:03:33.546Z,18.13
2018-11-05T12:06:03.256Z,16.87
2018-11-05T12:08:33.268Z,17.43
2018-11-05T12:11:03.206Z,16.87
2018-11-05T12:13:32.906Z,16.97
2018-11-05T12:16:02.909Z,16.37
2018-11-05T12:18:32.822Z,16.90
2018-11-05T12:21:02.839Z,16.43
2018-11-05T12:23:32.860Z,16.63
2018-11-05T12:26:02.989Z,16.20
2018-11-05T12:28:33.407Z,18.10
2018-11-05T12:31:02.809Z,17.10
2018-11-05T12:33:32.410Z,16.13
2018-11-05T12:36:01.913Z,19.13
2018-11-05T12:38:31.755Z,17.20
2018-11-05T12:41:01.848Z,16.40
2018-11-05T12:43:31.656Z,16.03
2018-11-05T12:46:01.773Z,18.47
2018-11-05T12:48:31.280Z,18.20
2018-11-05T12:51:01.911Z,16.13
2018-11-05T12:53:32.956Z,15.57
2018-11-05T12:56:03.427Z,14.20
2018-11-05T12:58:33.101Z,13.07
2018-11-05T13:01:03.012Z,13.83
2018-11-05T13:03:33.457Z,16.50
2018-11-05T13:06:03.237Z,14.73
2018-11-05T13:08:33.151Z,13.90
2018-11-05T13:11:03.377Z,14.53
2018-11-05T13:13:33.208Z,15.03
2018-11-05T13:16:02.898Z,13.77
2018-11-05T13:18:32.817Z,12.63
2018-11-05T13:21:02.731Z,12.20
2018-11-05T13:23:37.251Z,10.40
2018-11-05T13:26:08.199Z,11.10
2018-11-05T13:28:39.147Z,12.33
2018-11-05T13:31:09.348Z,11.27
2018-11-05T13:33:39.768Z,11.63
2018-11-05T13:36:10.607Z,10.77
2018-11-05T13:38:40.669Z,11.70
2018-11-05T13:41:10.231Z,10.67
2018-11-05T13:43:40.037Z,10.03
2018-11-05T13:46:13.555Z,10.33
2018-11-05T13:48:43.513Z,10.80
2018-11-05T13:51:12.757Z,11.20
2018-11-05T13:53:42.977Z,10.77
2018-11-05T13:56:12.907Z,13.30
2018-11-05T13:58:42.828Z,15.10
2018-11-05T14:01:12.719Z,16.60
2018-11-05T14:06:30.896Z,16.87
2018-11-05T14:09:01.306Z,14.57
2018-11-05T14:11:32.038Z,16.30
2018-11-05T14:14:02.523Z,14.60
2018-11-05T14:16:32.543Z,15.33
2018-11-05T14:19:02.408Z,15.03
2018-11-05T14:21:32.820Z,14.20
2018-11-05T14:24:02.934Z,12.70
2018-11-05T14:26:32.546Z,10.67
2018-11-05T14:29:02.773Z,12.33
2018-11-05T14:31:32.677Z,13.27
2018-11-05T14:34:02.807Z,12.43
2018-11-05T14:36:33.388Z,12.87
2018-11-05T14:39:03.758Z,12.00
2018-11-05T14:41:47.057Z,17.80
2018-11-05T14:44:17.916Z,23.07
2018-11-05T14:46:47.628Z,19.13
2018-11-05T14:49:17.947Z,18.00
2018-11-05T14:51:48.168Z,15.40
2018-11-05T14:54:18.493Z,14.30
2018-11-05T14:56:48.408Z,19.20
2018-11-05T14:59:18.833Z,24.13
2018-11-05T15:01:49.058Z,26.13
2018-11-05T15:04:18.996Z,26.23
2018-11-05T15:06:48.779Z,24.90
2018-11-05T15:09:18.691Z,19.83
2018-11-05T15:11:48.828Z,18.43
2018-11-05T15:14:18.835Z,15.03
2018-11-05T15:16:48.336Z,13.10
2018-11-05T15:19:18.519Z,12.17
2018-11-05T15:21:48.168Z,12.60
2018-11-05T15:24:18.307Z,12.40
2018-11-05T15:26:48.127Z,11.43
2018-11-05T15:29:18.029Z,12.17
2018-11-05T15:31:48.437Z,11.90
2018-11-05T15:34:19.489Z,13.00
2018-11-05T15:36:49.707Z,12.73
2018-11-05T15:39:20.227Z,12.73
2018-11-05T15:41:50.342Z,12.23
2018-11-05T15:44:20.167Z,17.17
2018-11-05T15:46:50.380Z,16.77
2018-11-05T15:49:20.397Z,11.27
2018-11-05T15:51:50.417Z,9.67
2018-11-05T15:54:20.027Z,9.53
2018-11-05T15:56:50.847Z,7.80
2018-11-05T15:59:20.867Z,8.90
2018-11-05T16:01:50.882Z,7.57
2018-11-05T16:04:21.656Z,8.27
2018-11-05T16:06:52.147Z,8.53
2018-11-05T16:09:22.181Z,8.23
2018-11-05T16:11:52.288Z,9.30
2018-11-05T16:14:22.829Z,9.63
2018-11-05T16:16:53.141Z,8.70
2018-11-05T16:19:23.982Z,8.33
2018-11-05T16:21:54.021Z,8.50
2018-11-05T16:24:24.075Z,8.97
2018-11-05T16:26:54.022Z,8.53
2018-11-05T16:29:23.862Z,11.63
2018-11-05T16:31:54.293Z,14.93
2018-11-05T16:34:24.621Z,15.37
2018-11-05T16:36:55.006Z,14.83
2018-11-05T16:39:25.029Z,13.50
2018-11-05T16:41:55.761Z,12.67
2018-11-05T16:44:25.569Z,13.17
2018-11-05T16:46:55.902Z,14.17
2018-11-05T16:49:27.982Z,13.77
2018-11-05T16:51:57.901Z,13.30
2018-11-05T16:54:27.597Z,13.23
2018-11-05T16:56:57.912Z,12.87
2018-11-05T16:59:27.944Z,12.57
2018-11-05T17:01:58.932Z,12.63
2018-11-05T17:04:28.789Z,12.60
2018-11-05T17:06:58.621Z,12.93
2018-11-05T17:09:28.708Z,13.63
2018-11-05T17:11:59.661Z,13.50
2018-11-05T17:14:32.231Z,13.60
2018-11-05T17:17:02.461Z,13.73
2018-11-05T17:19:35.036Z,14.07
2018-11-05T17:22:07.501Z,13.40
2018-11-05T17:24:38.340Z,12.20
2018-11-05T17:27:08.654Z,14.17
2018-11-05T17:29:39.301Z,13.67
2018-11-05T17:32:10.029Z,13.23
2018-11-05T17:34:40.469Z,13.37
2018-11-05T17:37:10.984Z,15.80
2018-11-05T17:39:41.191Z,15.50
2018-11-05T17:42:10.941Z,16.03
2018-11-05T17:44:41.437Z,15.67
2018-11-05T17:47:11.849Z,16.27
2018-11-05T17:49:42.692Z,18.27
2018-11-05T17:52:12.941Z,16.47
2018-11-05T17:54:44.188Z,15.77
2018-11-05T17:57:14.581Z,16.27
2018-11-05T17:59:45.222Z,16.40
2018-11-05T18:02:19.637Z,17.73
2018-11-05T18:04:50.009Z,17.70
2018-11-05T18:07:52.037Z,18.17
2018-11-05T18:10:23.484Z,19.60
2018-11-05T18:13:01.805Z,20.17
2018-11-05T18:15:36.097Z,21.60
2018-11-05T18:18:09.424Z,21.27
2018-11-05T18:20:39.427Z,22.67
2018-11-05T18:23:09.941Z,20.27
2018-11-05T18:25:40.317Z,21.50
2018-11-05T18:28:10.902Z,21.13
2018-11-05T18:30:41.429Z,21.30
2018-11-05T18:33:13.078Z,21.10
2018-11-05T18:35:43.724Z,22.40
2018-11-05T18:38:14.382Z,20.80
2018-11-05T18:40:44.780Z,21.43
2018-11-05T18:43:15.928Z,21.93
2018-11-05T18:45:46.244Z,23.63
2018-11-05T18:48:16.901Z,23.23
2018-11-05T18:50:47.308Z,22.23
2018-11-05T18:53:18.980Z,22.10
2018-11-05T18:55:50.341Z,23.83
2018-11-05T18:58:21.229Z,24.80
2018-11-05T19:00:51.869Z,25.23
2018-11-05T19:03:22.097Z,27.10
2018-11-05T19:05:52.436Z,25.87
2018-11-05T19:08:22.645Z,26.77
2018-11-05T19:10:52.964Z,25.30
2018-11-05T19:13:23.181Z,24.07
2018-11-05T19:15:53.905Z,24.10
2018-11-05T19:18:24.383Z,23.83
2018-11-05T19:20:54.348Z,26.00
2018-11-05T19:23:24.889Z,27.93
2018-11-05T19:25:55.221Z,28.53
2018-11-05T19:28:25.378Z,27.37
2018-11-05T19:30:55.748Z,27.00
2018-11-05T19:33:25.861Z,28.43
2018-11-05T19:35:55.871Z,27.77
2018-11-05T19:38:26.109Z,25.77
2018-11-05T19:40:56.541Z,24.57
2018-11-05T19:43:28.621Z,24.13
2018-11-05T19:45:59.861Z,23.50
2018-11-05T19:48:30.064Z,23.67
2018-11-05T19:51:00.380Z,22.63
2018-11-05T19:53:30.935Z,24.03
2018-11-05T19:56:02.828Z,24.80
2018-11-05T19:58:32.789Z,24.40
2018-11-05T20:01:02.918Z,23.17
2018-11-05T20:03:33.024Z,22.27
2018-11-05T20:06:04.447Z,21.30
2018-11-05T20:08:36.949Z,20.87
2018-11-05T20:11:08.221Z,19.03
2018-11-05T20:13:40.669Z,18.47
2018-11-05T20:16:12.741Z,17.63
2018-11-05T20:18:43.499Z,17.90
2018-11-05T20:21:14.509Z,18.57
2018-11-05T20:23:44.741Z,18.70
2018-11-05T20:26:15.269Z,16.93
2018-11-05T20:28:45.814Z,16.77
2018-11-05T20:31:16.394Z,16.83
2018-11-05T20:33:47.331Z,16.73
2018-11-05T20:36:18.421Z,15.83
2018-11-05T20:38:48.341Z,16.27
2018-11-05T20:41:24.270Z,15.97
2018-11-05T20:43:58.581Z,15.93
2018-11-05T20:46:29.373Z,15.33
2018-11-05T20:49:02.221Z,14.73
2018-11-05T20:51:34.373Z,14.90
2018-11-05T20:54:07.397Z,13.90
2018-11-05T20:56:38.821Z,14.83
2018-11-05T20:59:12.005Z,14.83
2018-11-05T21:01:43.238Z,13.93
2018-11-05T21:04:14.590Z,14.10
2018-11-05T21:06:47.401Z,14.97
2018-11-05T21:09:19.161Z,14.53
2018-11-05T21:11:50.469Z,13.40
2018-11-05T21:14:21.171Z,13.07
2018-11-05T21:16:53.183Z,13.23
2018-11-05T21:19:23.633Z,13.87
2018-11-05T21:21:54.292Z,13.10
2018-11-05T21:24:25.721Z,12.67
2018-11-05T21:26:57.840Z,13.83
2018-11-05T21:29:27.967Z,13.70
2018-11-05T21:31:59.939Z,14.97
2018-11-05T21:34:30.650Z,14.17
2018-11-05T21:37:02.433Z,14.10
2018-11-05T21:39:33.481Z,12.97
2018-11-05T21:42:03.989Z,13.33
2018-11-05T21:44:34.409Z,12.77
2018-11-05T21:47:04.736Z,13.40
2018-11-05T21:49:34.849Z,14.23
2018-11-05T21:52:05.181Z,13.93
2018-11-05T21:54:36.837Z,14.43
2018-11-05T21:57:12.493Z,15.03
2018-11-05T21:59:43.309Z,14.13
2018-11-05T22:02:14.149Z,14.60
2018-11-05T22:04:46.428Z,15.20
2018-11-05T22:07:16.767Z,15.30
2018-11-05T22:09:46.962Z,15.27
2018-11-05T22:12:16.981Z,15.40
2018-11-05T22:14:47.089Z,16.87
2018-11-05T22:17:17.429Z,16.07
2018-11-05T22:19:47.441Z,17.37
2018-11-05T22:22:17.972Z,15.23
2018-11-05T22:24:48.521Z,16.83
2018-11-05T22:27:18.843Z,16.53
2018-11-05T22:29:49.351Z,15.97
2018-11-05T22:32:20.181Z,15.33
2018-11-05T22:34:50.411Z,15.20
2018-11-05T22:37:20.913Z,15.97
2018-11-05T22:39:51.771Z,16.80
2018-11-05T22:42:22.409Z,14.43
2018-11-05T22:44:53.006Z,15.47
2018-11-05T22:47:23.661Z,14.57
2018-11-05T22:49:54.010Z,15.30
2018-11-05T22:52:24.930Z,16.10
2018-11-05T22:54:55.458Z,15.10
2018-11-05T22:57:25.989Z,15.10
2018-11-05T22:59:56.407Z,15.23
2018-11-05T23:02:27.549Z,14.73
2018-11-05T23:04:58.408Z,14.00
2018-11-05T23:07:28.804Z,13.43
2018-11-05T23:09:59.445Z,15.07
2018-11-05T23:12:29.873Z,14.30
2018-11-05T23:15:00.808Z,13.93
2018-11-05T23:17:31.540Z,14.73
2018-11-05T23:20:01.969Z,14.47
2018-11-05T23:22:32.486Z,14.27
2018-11-05T23:25:02.818Z,13.70
2018-11-05T23:27:33.343Z,13.63
2018-11-05T23:30:03.882Z,14.23
2018-11-05T23:32:33.887Z,12.23
2018-11-05T23:35:04.517Z,13.90
2018-11-05T23:37:34.951Z,13.47
2018-11-05T23:40:05.891Z,14.10
2018-11-05T23:42:36.306Z,14.00
2018-11-05T23:45:07.863Z,12.90
2018-11-05T23:47:38.490Z,14.00
2018-11-05T23:50:09.006Z,14.27
2018-11-05T23:52:39.756Z,13.90
2018-11-05T23:55:10.797Z,13.80
2018-11-05T23:57:41.530Z,14.20
